ADDS METAR Data INFO
IDs: Format: Raw Decoded Include TAF

Data at: 2023 UTC 20 Jul 2018

KBJI 202015Z AUTO 32013KT 5SM HZ BKN025 BKN030 BKN038 23/17 A2993 RMK AO2 T02300173
KBJI 201955Z AUTO 32009KT 5SM HZ BKN025 BKN100 23/17 A2993 RMK AO2 T02330173
KBJI 201935Z AUTO 32008KT 5SM HZ SCT021 SCT029 SCT036 23/17 A2992 RMK AO2 T02340174
KBJI 201915Z AUTO 30006KT 4SM HZ SCT021 BKN025 BKN030 23/18 A2992 RMK AO2 LTG DSNT N T02280176
KBJI 201855Z AUTO 33007KT 4SM HZ SCT019 SCT030 BKN038 23/18 A2992 RMK AO2 T02250176
KBJI 201835Z AUTO 34005KT 4SM HZ SCT015 BKN034 BKN042 22/18 A2993 RMK AO2 T02210181
KBJI 201815Z AUTO 28007KT 3SM HZ BKN015 BKN029 22/18 A2992 RMK AO2 T02150178
KBJI 201755Z AUTO 30007KT 4SM HZ SCT015 SCT025 SCT032 21/18 A2992 RMK AO2 T02120177 10218 20171
KBJI 201735Z AUTO 31008KT 4SM HZ SCT015 BKN023 BKN100 21/18 A2992 RMK AO2 T02110178
KBJI 201715Z AUTO 32009KT 5SM HZ SCT015 BKN023 BKN100 22/18 A2991 RMK AO2 T02150176
KBJI 201655Z AUTO 32009KT 5SM HZ BKN015 BKN023 21/18 A2991 RMK AO2 T02130175
KBJI 201635Z AUTO 30008KT 7SM OVC015 21/18 A2990 RMK AO2 T02130177
KBJI 201615Z AUTO 30008KT 10SM OVC013 21/18 A2990 RMK AO2 T02100175
KBJI 201555Z AUTO 29006KT 10SM BKN011 21/18 A2990 RMK AO2 T02100179
KBJI 201535Z AUTO 28006KT 10SM SCT011 SCT120 21/18 A2990 RMK AO2 T02050177
KBJI 201515Z AUTO 28005KT 10SM BKN009 BKN120 20/18 A2989 RMK AO2 T02010175
KBJI 201455Z AUTO 32003KT 10SM BKN007 OVC120 20/18 A2989 RMK AO2 T01950175
KBJI 201435Z AUTO 31003KT 10SM BKN007 BKN120 19/18 A2989 RMK AO2 T01930177
KBJI 201415Z AUTO 28004KT 10SM SCT005 19/18 A2989 RMK AO2 T01910176
KBJI 201355Z AUTO 29003KT 10SM SCT005 19/18 A2989 RMK AO2 T01870175
KBJI 201335Z AUTO 29004KT 10SM -RA SCT005 SCT120 19/18 A2989 RMK AO2 T01850177
KBJI 201316Z AUTO 27004KT 10SM BKN005 18/17 A2989 RMK AO2 T01780170
KBJI 201255Z AUTO 28003KT 10SM -DZ SCT005 SCT095 17/17 A2989 RMK AO2 T01740167
KBJI 201235Z AUTO 27004KT 10SM BKN005 17/17 A2989 RMK AO2 T01720166
KBJI 201215Z AUTO 26005KT 10SM BKN007 OVC095 17/17 A2987 RMK AO2 T01710165
KBJI 201155Z AUTO 27004KT 10SM SCT007 OVC095 17/16 A2987 RMK AO2 70020 T01700164 10184 20170
KBJI 201135Z AUTO 29005KT 10SM -DZ BKN007 BKN110 17/17 A2987 RMK AO2 T01700165
KBJI 201116Z AUTO 31006KT 10SM BKN005 OVC110 17/17 A2987 RMK AO2 T01720165
KBJI 201055Z AUTO 32005KT 10SM BKN005 BKN110 17/17 A2986 RMK AO2 T01720168
KBJI 201035Z AUTO 33006KT 10SM CLR 17/17 A2985 RMK AO2 T01720170
KBJI 201016Z AUTO 32007KT 10SM SCT004 17/17 A2984 RMK AO2 T01730169
KBJI 200955Z AUTO 30006KT 10SM BKN004 BKN110 18/17 A2984 RMK AO2 T01750170
KBJI 200935Z AUTO 28007KT 10SM SCT110 18/17 A2984 RMK AO2 T01760170
KBJI 200915Z AUTO 27007KT 10SM SCT110 18/17 A2984 RMK AO2 T01760171
KBJI 200855Z AUTO 26005KT 10SM BKN110 18/17 A2983 RMK AO2 T01760171
KBJI 200835Z AUTO 25005KT 10SM OVC110 18/17 A2983 RMK AO2 T01770171
KBJI 200815Z AUTO 25005KT 10SM OVC110 18/17 A2983 RMK AO2 T01770172
KBJI 200755Z AUTO 24004KT 10SM OVC110 18/17 A2983 RMK AO2 T01790172
KBJI 200735Z AUTO 23006KT 10SM OVC120 18/18 A2982 RMK AO2 T01800175
KBJI 200715Z AUTO 20004KT 10SM BKN120 18/17 A2982 RMK AO2 T01800173
KBJI 200655Z AUTO 31003KT 10SM -DZ SCT034 SCT041 BKN048 18/18 A2982 RMK AO2 T01830175
KBJI 200635Z AUTO 23005KT 10SM OVC032 18/18 A2983 RMK AO2 T01830176
KBJI 200615Z AUTO 21006KT 10SM SCT030 18/18 A2983 RMK AO2 T01830176
KBJI 200555Z AUTO 23005KT 10SM BKN030 BKN038 BKN060 18/18 A2983 RMK AO2 60002 T01840175 10191 20181 402440161
KBJI 200535Z AUTO 21003KT 10SM SCT020 BKN028 OVC038 18/18 A2984 RMK AO2 T01830175
KBJI 200515Z AUTO 25003KT 10SM SCT022 BKN026 OVC036 18/18 A2984 RMK AO2 T01830176
KBJI 200455Z AUTO 00000KT 10SM BKN024 BKN029 BKN036 19/18 A2983 RMK AO2 T01850175
KBJI 200435Z AUTO 00000KT 10SM BKN026 BKN038 OVC100 18/18 A2984 RMK AO2 T01830176
KBJI 200416Z AUTO 00000KT 10SM BKN026 BKN100 18/18 A2984 RMK AO2 T01820177
KBJI 200355Z AUTO 27004KT 10SM SCT028 BKN040 18/18 A2984 RMK AO2 T01820177
KBJI 200335Z AUTO 28004KT 10SM SCT032 BKN040 BKN060 18/18 A2984 RMK AO2 T01810178
KBJI 200315Z AUTO 26004KT 10SM SCT034 SCT060 SCT110 19/18 A2983 RMK AO2 T01850181
KBJI 200255Z AUTO 23003KT 10SM SCT032 SCT049 BKN110 19/18 A2983 RMK AO2 60002 T01860182
KBJI 200235Z AUTO 27003KT 10SM -DZ SCT050 SCT060 19/18 A2982 RMK AO2 T01850181
KBJI 200215Z AUTO 29004KT 10SM -RA CLR 19/18 A2982 RMK AO2 T01850181
KBJI 200155Z AUTO 00000KT 10SM SCT110 19/18 A2982 RMK AO2 T01850182
KBJI 200135Z AUTO 00000KT 10SM SCT110 19/18 A2982 RMK AO2 T01870183
KBJI 200115Z AUTO 00000KT 10SM SCT110 19/18 A2981 RMK AO2 T01900183
KBJI 200055Z AUTO 00000KT 10SM SCT044 SCT110 19/18 A2981 RMK AO2 P0002 T01900181
KBJI 200035Z AUTO 00000KT 10SM -DZ SCT006 SCT031 BKN044 19/18 A2980 RMK AO2 P0002 T01900184
KBJI 200015Z AUTO 15006KT 10SM -RA SCT006 SCT033 BKN041 19/19 A2981 RMK AO2 P0001 T01910186
KBJI 192355Z AUTO 14006KT 10SM -RA SCT006 BKN033 BKN041 19/18 A2981 RMK AO2 P0002 60018 T01900183 10242 20190
KBJI 192335Z AUTO 00000KT 10SM -RA SCT008 SCT034 SCT055 19/18 A2981 RMK AO2 P0001 T01910184
KBJI 192315Z AUTO 20004KT 10SM -RA SCT005 SCT011 SCT034 19/18 A2981 RMK AO2 P0001 T01920183
KBJI 192255Z AUTO 18005KT 10SM -RA SCT006 SCT017 BKN041 19/19 A2981 RMK AO2 P0006 T01930186
KBJI 192235Z AUTO 22004KT 7SM RA SCT029 BKN042 OVC049 19/18 A2981 RMK AO2 P0005 T01940184
KBJI 192215Z AUTO 29004KT 10SM RA SCT029 SCT043 BKN050 20/18 A2981 RMK AO2 P0001 T01960178
KBJI 192155Z AUTO 27005KT 10SM BKN090 20/17 A2980 RMK AO2 T01980174
KBJI 192135Z AUTO 24004KT 10SM OVC090 20/17 A2980 RMK AO2 T02000172
KBJI 192115Z AUTO 25004KT 10SM OVC075 20/17 A2980 RMK AO2 T02030171
KBJI 192055Z AUTO 23004KT 10SM BKN090 21/17 A2980 RMK AO2 60010 T02070174
KBJI 192035Z AUTO 23006KT 10SM SCT039 BKN100 BKN120 21/18 A2981 RMK AO2 T02110176
KBJI 192015Z AUTO 19010KT 10SM SCT110 23/19 A2981 RMK AO2 T02280186
KBJI 191955Z AUTO 04004KT 10SM CLR 24/17 A2981 RMK AO2 P0010 T02370165
KBJI 191935Z AUTO 02005KT 10SM SCT027 SCT035 SCT042 22/18 A2980 RMK AO2 LTG DSNT S P0010 T02220184
KBJI 191915Z AUTO 08008KT 2 1/2SM +TSRA BKN031 BKN039 OVC075 19/17 A2982 RMK AO2 VIS 1V5 LTG DSNT N P0010 T01900169
KBJI 191855Z AUTO 07015G18KT 10SM SCT031 SCT075 BKN090 24/18 A2982 RMK AO2 T02380179
KBJI 191835Z AUTO 05005KT 10SM CLR 24/18 A2981 RMK AO2 LTG DSNT N T02410180
KBJI 191815Z AUTO 05003KT 10SM CLR 24/18 A2982 RMK AO2 T02380182
KBJI 191755Z AUTO 07006KT 10SM CLR 24/18 A2983 RMK AO2 LTG DSNT N T02380181 10244 20182
KBJI 191735Z AUTO 08005KT 10SM CLR 24/18 A2983 RMK AO2 T02380181
KBJI 191715Z AUTO 08005KT 10SM SCT025 SCT034 SCT055 24/18 A2983 RMK AO2 T02370181
KBJI 191655Z AUTO 11005KT 10SM SCT025 SCT050 24/18 A2983 RMK AO2 T02360180
KBJI 191635Z AUTO 09005KT 10SM SCT025 SCT050 24/18 A2982 RMK AO2 T02360177
KBJI 191615Z AUTO 11007KT 10SM SCT025 24/18 A2982 RMK AO2 T02400178
KBJI 191555Z AUTO 09006KT 10SM SCT050 24/18 A2982 RMK AO2 T02420179
KBJI 191535Z AUTO 11006KT 10SM BKN050 24/18 A2983 RMK AO2 T02390178
KBJI 191515Z AUTO 15005KT 10SM CLR 24/18 A2983 RMK AO2 T02440178
KBJI 191455Z AUTO 13005KT 10SM CLR 23/18 A2983 RMK AO2 T02300175
KBJI 191435Z AUTO 13005KT 10SM CLR 23/17 A2984 RMK AO2 T02310173
KBJI 191415Z AUTO 12005KT 10SM CLR 23/17 A2984 RMK AO2 T02250169
KBJI 191355Z AUTO 12007KT 10SM CLR 22/17 A2984 RMK AO2 T02200167
KBJI 191335Z AUTO 13004KT 10SM CLR 21/17 A2984 RMK AO2 T02050165
KBJI 191315Z AUTO 13006KT 10SM CLR 21/17 A2985 RMK AO2 T02050165
KBJI 191255Z AUTO 14007KT 10SM CLR 20/16 A2985 RMK AO2 T02000164
KBJI 191235Z AUTO 14007KT 10SM CLR 19/16 A2985 RMK AO2 T01930161
KBJI 191215Z AUTO 12006KT 10SM CLR 19/16 A2985 RMK AO2 T01890163
KBJI 191155Z AUTO 13004KT 10SM SCT060 18/16 A2986 RMK AO2 T01820162 10187 20161
KBJI 191135Z AUTO 13004KT 10SM SCT060 17/16 A2986 RMK AO2 T01710159
KBJI 191115Z AUTO 14003KT 10SM SCT060 17/15 A2987 RMK AO2 T01650153
KBJI 191055Z AUTO 13004KT 10SM SCT060 17/15 A2987 RMK AO2 T01660152
KBJI 191035Z AUTO 14005KT 10SM SCT060 17/15 A2988 RMK AO2 T01680152
KBJI 191015Z AUTO 13004KT 10SM SCT060 17/15 A2988 RMK AO2 T01670150
KBJI 190955Z AUTO 13004KT 10SM CLR 16/15 A2988 RMK AO2 T01620147
KBJI 190935Z AUTO 12004KT 10SM SCT055 16/15 A2988 RMK AO2 T01630151
KBJI 190915Z AUTO 11003KT 10SM BKN055 17/16 A2989 RMK AO2 T01690156
KBJI 190855Z AUTO 11003KT 10SM BKN055 17/16 A2990 RMK AO2 T01700155
KBJI 190835Z AUTO 12003KT 10SM SCT055 17/16 A2990 RMK AO2 T01690157